SAAJ/JNI METAR and TAF weather

Enter ICAO airport designator
Station Type Date Time Source
SAAJ METAR 2021/07/08 00:15 UTC NOAA

SAAJ 080015Z 18005KT 0200 FG VV/// 13/13 Q1016


Station Type Date Time Source
SAAJ Decoded METAR 2021/07/08 00:15 UTC NOAA

Junin Aerodrome, Argentina (SAAJ) 34-33S 060-55W 81M
Jul 07, 2021 - 08:15 PM EDT / 2021.07.08 0015 UTC
Wind: from the S (180 degrees) at 6 MPH (5 KT):0
Visibility: less than 1 mile:0
Sky conditions: obscured
Weather: fog
Temperature: 55 F (13 C)
Dew Point: 55 F (13 C)
Relative Humidity: 100%
Pressure (altimeter): 30.00 in. Hg (1016 hPa)
ob: SAAJ 080015Z 18005KT 0200 FG VV/// 13/13 Q1016
cycle: 0

Station Type Date Time Source
SAAJ TAF UTC NOAA

Error!

Example: see airport list